Carthagena, Ohio
Current Conditions -  °F | °C
As of 9:32 AM on Tuesday 27 Jan 2015 (Local Time) from KAXV Reporting Station
Haze Haze  
Wind Chill: 14°   Ceiling: Unl
Heat Index: 14°   Visibility: 5mi
Dew Point: 14°   Wind: 0mph
Humidity: 100%   Direction: NA
Pressure: 30.07"   Gusts: NA
Location:  40.5555°N, 84.6061°W
Report Text: KAXV 271432Z AUTO 00000KT 5SM BR CLR M10/M10 A3007 RMK AO2
Loading
Personal Weather Stations






























Interactive Weather Map New forecast layout! Learn more

10-Day Weather Forecast

Advertisements
Track Severe Weather on mobile